sensor_id;sensor_type;location;lat;lon;timestamp;pressure;altitude;pressure_sealevel;temperature;humidity
18813;BME280;9534;51.140;6.296;2023-01-26T00:03:57;101557.09;;;-1.66;100.00
18813;BME280;9534;51.140;6.296;2023-01-26T00:08:03;101543.97;;;-1.58;100.00
18813;BME280;9534;51.140;6.296;2023-01-26T00:12:07;101527.84;;;-1.58;100.00
18813;BME280;9534;51.140;6.296;2023-01-26T00:16:13;101506.13;;;-1.66;100.00
18813;BME280;9534;51.140;6.296;2023-01-26T00:20:17;101521.56;;;-1.70;100.00
18813;BME280;9534;51.140;6.296;2023-01-26T00:24:23;101519.31;;;-1.63;100.00
18813;BME280;9534;51.140;6.296;2023-01-26T00:28:28;101517.59;;;-1.64;100.00
18813;BME280;9534;51.140;6.296;2023-01-26T00:32:33;101514.16;;;-1.66;100.00
18813;BME280;9534;51.140;6.296;2023-01-26T00:36:38;101505.16;;;-1.65;100.00
18813;BME280;9534;51.140;6.296;2023-01-26T00:40:43;101504.69;;;-1.59;100.00
18813;BME280;9534;51.140;6.296;2023-01-26T00:44:48;101503.59;;;-1.57;100.00
18813;BME280;9534;51.140;6.296;2023-01-26T00:48:52;101496.75;;;-1.61;100.00
18813;BME280;9534;51.140;6.296;2023-01-26T00:52:56;101486.63;;;-1.57;100.00
18813;BME280;9534;51.140;6.296;2023-01-26T00:57:02;101490.53;;;-1.61;100.00
18813;BME280;9534;51.140;6.296;2023-01-26T01:01:06;101489.22;;;-1.56;100.00
18813;BME280;9534;51.140;6.296;2023-01-26T01:05:10;101482.00;;;-1.55;100.00
18813;BME280;9534;51.140;6.296;2023-01-26T01:09:14;101476.88;;;-1.58;100.00
18813;BME280;9534;51.140;6.296;2023-01-26T01:13:20;101475.06;;;-1.58;100.00
18813;BME280;9534;51.140;6.296;2023-01-26T01:17:24;101471.69;;;-1.49;100.00
18813;BME280;9534;51.140;6.296;2023-01-26T01:21:28;101469.63;;;-1.45;100.00
18813;BME280;9534;51.140;6.296;2023-01-26T01:25:33;101464.03;;;-1.42;100.00
18813;BME280;9534;51.140;6.296;2023-01-26T01:29:38;101464.91;;;-1.42;100.00
18813;BME280;9534;51.140;6.296;2023-01-26T01:33:42;101466.84;;;-1.44;100.00
18813;BME280;9534;51.140;6.296;2023-01-26T01:37:47;101462.09;;;-1.40;100.00
18813;BME280;9534;51.140;6.296;2023-01-26T01:41:51;101450.53;;;-1.41;100.00
18813;BME280;9534;51.140;6.296;2023-01-26T01:45:58;101460.84;;;-1.47;100.00
18813;BME280;9534;51.140;6.296;2023-01-26T01:50:04;101458.16;;;-1.47;100.00
18813;BME280;9534;51.140;6.296;2023-01-26T01:54:11;101452.09;;;-1.38;100.00
18813;BME280;9534;51.140;6.296;2023-01-26T01:58:15;101455.00;;;-1.41;100.00
18813;BME280;9534;51.140;6.296;2023-01-26T02:02:21;101442.09;;;-1.36;100.00
18813;BME280;9534;51.140;6.296;2023-01-26T02:06:30;101435.25;;;-1.40;100.00
18813;BME280;9534;51.140;6.296;2023-01-26T02:10:36;101435.91;;;-1.37;100.00
18813;BME280;9534;51.140;6.296;2023-01-26T02:14:41;101444.34;;;-1.30;100.00
18813;BME280;9534;51.140;6.296;2023-01-26T02:18:46;101442.75;;;-1.33;100.00
18813;BME280;9534;51.140;6.296;2023-01-26T02:22:54;101434.97;;;-1.25;100.00
18813;BME280;9534;51.140;6.296;2023-01-26T02:27:02;101432.81;;;-1.20;100.00
18813;BME280;9534;51.140;6.296;2023-01-26T02:31:08;101426.78;;;-1.23;100.00
18813;BME280;9534;51.140;6.296;2023-01-26T02:35:13;101427.91;;;-1.26;100.00
18813;BME280;9534;51.140;6.296;2023-01-26T02:39:22;101430.97;;;-1.19;100.00
18813;BME280;9534;51.140;6.296;2023-01-26T02:43:31;101423.50;;;-1.16;100.00
18813;BME280;9534;51.140;6.296;2023-01-26T02:47:35;101413.25;;;-1.22;100.00
18813;BME280;9534;51.140;6.296;2023-01-26T02:51:39;101408.13;;;-1.25;100.00
18813;BME280;9534;51.140;6.296;2023-01-26T02:55:43;101406.66;;;-1.29;100.00
18813;BME280;9534;51.140;6.296;2023-01-26T02:59:48;101393.84;;;-1.25;100.00
18813;BME280;9534;51.140;6.296;2023-01-26T03:03:52;101392.63;;;-1.21;100.00
18813;BME280;9534;51.140;6.296;2023-01-26T03:07:58;101383.56;;;-1.31;100.00
18813;BME280;9534;51.140;6.296;2023-01-26T03:12:08;101380.41;;;-1.25;100.00
18813;BME280;9534;51.140;6.296;2023-01-26T03:16:13;101388.69;;;-1.28;100.00
18813;BME280;9534;51.140;6.296;2023-01-26T03:20:19;101388.38;;;-1.24;100.00
18813;BME280;9534;51.140;6.296;2023-01-26T03:24:41;101393.88;;;-1.14;100.00
18813;BME280;9534;51.140;6.296;2023-01-26T03:29:03;101397.28;;;-1.13;100.00
18813;BME280;9534;51.140;6.296;2023-01-26T03:33:09;101394.47;;;-1.11;100.00
18813;BME280;9534;51.140;6.296;2023-01-26T03:37:13;101388.13;;;-1.10;100.00
18813;BME280;9534;51.140;6.296;2023-01-26T03:41:23;101375.56;;;-1.10;100.00
18813;BME280;9534;51.140;6.296;2023-01-26T03:45:44;101394.25;;;-1.08;100.00
18813;BME280;9534;51.140;6.296;2023-01-26T03:50:09;101396.81;;;-1.07;100.00
18813;BME280;9534;51.140;6.296;2023-01-26T03:54:30;101395.13;;;-1.08;100.00
18813;BME280;9534;51.140;6.296;2023-01-26T03:58:53;101387.63;;;-1.15;100.00
18813;BME280;9534;51.140;6.296;2023-01-26T04:03:01;101396.59;;;-1.04;100.00
18813;BME280;9534;51.140;6.296;2023-01-26T04:07:24;101399.47;;;-1.17;100.00
18813;BME280;9534;51.140;6.296;2023-01-26T04:11:46;101385.59;;;-1.12;100.00
18813;BME280;9534;51.140;6.296;2023-01-26T04:15:50;101378.53;;;-1.02;100.00
18813;BME280;9534;51.140;6.296;2023-01-26T04:20:11;101372.19;;;-1.01;100.00
18813;BME280;9534;51.140;6.296;2023-01-26T04:24:34;101375.34;;;-1.07;100.00
18813;BME280;9534;51.140;6.296;2023-01-26T04:28:38;101381.56;;;-1.06;100.00
18813;BME280;9534;51.140;6.296;2023-01-26T04:32:43;101383.91;;;-1.02;100.00
18813;BME280;9534;51.140;6.296;2023-01-26T04:36:48;101369.72;;;-1.04;100.00
18813;BME280;9534;51.140;6.296;2023-01-26T04:40:55;101384.16;;;-0.94;100.00
18813;BME280;9534;51.140;6.296;2023-01-26T04:44:59;101372.44;;;-0.93;100.00
18813;BME280;9534;51.140;6.296;2023-01-26T04:49:04;101371.47;;;-0.92;100.00
18813;BME280;9534;51.140;6.296;2023-01-26T04:53:09;101370.72;;;-0.94;100.00
18813;BME280;9534;51.140;6.296;2023-01-26T04:57:14;101371.22;;;-1.00;100.00
18813;BME280;9534;51.140;6.296;2023-01-26T05:01:23;101365.97;;;-0.90;100.00
18813;BME280;9534;51.140;6.296;2023-01-26T05:05:28;101367.81;;;-0.91;100.00
18813;BME280;9534;51.140;6.296;2023-01-26T05:09:31;101364.88;;;-0.88;100.00
18813;BME280;9534;51.140;6.296;2023-01-26T05:13:54;101364.88;;;-0.88;100.00
18813;BME280;9534;51.140;6.296;2023-01-26T05:18:21;101374.88;;;-0.90;100.00
18813;BME280;9534;51.140;6.296;2023-01-26T05:22:32;101368.31;;;-0.86;100.00
18813;BME280;9534;51.140;6.296;2023-01-26T05:27:06;101375.88;;;-0.91;100.00
18813;BME280;9534;51.140;6.296;2023-01-26T05:31:36;101389.91;;;-0.76;100.00
18813;BME280;9534;51.140;6.296;2023-01-26T05:35:40;101380.13;;;-0.88;100.00
18813;BME280;9534;51.140;6.296;2023-01-26T05:39:45;101382.06;;;-0.90;100.00
18813;BME280;9534;51.140;6.296;2023-01-26T05:43:49;101381.72;;;-0.97;100.00
18813;BME280;9534;51.140;6.296;2023-01-26T05:48:10;101384.91;;;-0.92;100.00
18813;BME280;9534;51.140;6.296;2023-01-26T05:52:15;101383.31;;;-0.83;100.00
18813;BME280;9534;51.140;6.296;2023-01-26T05:56:19;101385.13;;;-0.95;100.00
18813;BME280;9534;51.140;6.296;2023-01-26T06:00:28;101381.00;;;-0.88;100.00
18813;BME280;9534;51.140;6.296;2023-01-26T06:04:41;101380.09;;;-0.99;100.00
18813;BME280;9534;51.140;6.296;2023-01-26T06:08:47;101386.09;;;-1.07;100.00
18813;BME280;9534;51.140;6.296;2023-01-26T06:13:05;101386.59;;;-0.91;100.00
18813;BME280;9534;51.140;6.296;2023-01-26T06:17:15;101385.16;;;-0.84;100.00
18813;BME280;9534;51.140;6.296;2023-01-26T06:21:22;101393.59;;;-0.77;100.00
18813;BME280;9534;51.140;6.296;2023-01-26T06:25:26;101391.50;;;-0.85;100.00
18813;BME280;9534;51.140;6.296;2023-01-26T06:29:29;101395.28;;;-0.76;100.00
18813;BME280;9534;51.140;6.296;2023-01-26T06:33:35;101390.16;;;-0.79;100.00
18813;BME280;9534;51.140;6.296;2023-01-26T06:37:42;101393.47;;;-0.65;100.00
18813;BME280;9534;51.140;6.296;2023-01-26T06:41:46;101392.63;;;-0.65;100.00
18813;BME280;9534;51.140;6.296;2023-01-26T06:45:51;101408.50;;;-0.62;100.00
18813;BME280;9534;51.140;6.296;2023-01-26T06:49:55;101398.59;;;-0.84;100.00
18813;BME280;9534;51.140;6.296;2023-01-26T06:53:59;101401.91;;;-0.69;100.00
18813;BME280;9534;51.140;6.296;2023-01-26T06:58:25;101398.84;;;-0.65;100.00
18813;BME280;9534;51.140;6.296;2023-01-26T07:02:49;101394.56;;;-0.67;100.00
18813;BME280;9534;51.140;6.296;2023-01-26T07:06:52;101400.31;;;-0.61;100.00
18813;BME280;9534;51.140;6.296;2023-01-26T07:10:58;101404.72;;;-0.49;100.00
18813;BME280;9534;51.140;6.296;2023-01-26T07:15:01;101400.44;;;-0.51;100.00
18813;BME280;9534;51.140;6.296;2023-01-26T07:19:04;101400.81;;;-0.78;100.00
18813;BME280;9534;51.140;6.296;2023-01-26T07:23:09;101404.22;;;-0.65;100.00
18813;BME280;9534;51.140;6.296;2023-01-26T07:27:15;101409.59;;;-0.65;100.00
18813;BME280;9534;51.140;6.296;2023-01-26T07:31:18;101410.81;;;-0.58;100.00
18813;BME280;9534;51.140;6.296;2023-01-26T07:35:22;101406.91;;;-0.65;100.00
18813;BME280;9534;51.140;6.296;2023-01-26T07:39:26;101404.94;;;-0.63;100.00
18813;BME280;9534;51.140;6.296;2023-01-26T07:43:34;101411.19;;;-0.51;100.00
18813;BME280;9534;51.140;6.296;2023-01-26T07:47:42;101414.38;;;-0.46;100.00
18813;BME280;9534;51.140;6.296;2023-01-26T07:51:46;101421.72;;;-0.48;100.00
18813;BME280;9534;51.140;6.296;2023-01-26T07:55:50;101422.78;;;-0.51;100.00
18813;BME280;9534;51.140;6.296;2023-01-26T07:59:55;101425.72;;;-0.43;100.00
18813;BME280;9534;51.140;6.296;2023-01-26T08:04:00;101422.78;;;-0.51;100.00
18813;BME280;9534;51.140;6.296;2023-01-26T08:08:04;101422.44;;;-0.35;100.00
18813;BME280;9534;51.140;6.296;2023-01-26T08:12:08;101429.16;;;-0.41;100.00
18813;BME280;9534;51.140;6.296;2023-01-26T08:16:13;101425.97;;;-0.46;100.00
18813;BME280;9534;51.140;6.296;2023-01-26T08:20:17;101425.25;;;-0.48;100.00
18813;BME280;9534;51.140;6.296;2023-01-26T08:24:21;101427.69;;;-0.45;100.00
18813;BME280;9534;51.140;6.296;2023-01-26T08:28:25;101429.63;;;-0.47;100.00
18813;BME280;9534;51.140;6.296;2023-01-26T08:32:29;101426.72;;;-0.33;100.00
18813;BME280;9534;51.140;6.296;2023-01-26T08:36:33;101436.25;;;-0.40;100.00
18813;BME280;9534;51.140;6.296;2023-01-26T08:40:37;101425.00;;;-0.23;100.00
18813;BME280;9534;51.140;6.296;2023-01-26T08:44:41;101422.66;;;-0.16;100.00
18813;BME280;9534;51.140;6.296;2023-01-26T08:48:46;101430.25;;;-0.21;100.00
18813;BME280;9534;51.140;6.296;2023-01-26T08:52:50;101429.75;;;-0.15;100.00
18813;BME280;9534;51.140;6.296;2023-01-26T08:56:53;101438.44;;;-0.34;100.00
18813;BME280;9534;51.140;6.296;2023-01-26T09:00:57;101446.28;;;-0.31;100.00
18813;BME280;9534;51.140;6.296;2023-01-26T09:05:02;101444.06;;;-0.26;100.00
18813;BME280;9534;51.140;6.296;2023-01-26T09:09:06;101446.88;;;-0.27;100.00
18813;BME280;9534;51.140;6.296;2023-01-26T09:13:14;101453.97;;;-0.26;100.00
18813;BME280;9534;51.140;6.296;2023-01-26T09:17:19;101453.63;;;-0.22;100.00
18813;BME280;9534;51.140;6.296;2023-01-26T09:21:24;101465.09;;;-0.20;100.00
18813;BME280;9534;51.140;6.296;2023-01-26T09:25:29;101456.41;;;-0.12;100.00
18813;BME280;9534;51.140;6.296;2023-01-26T09:29:33;101455.81;;;-0.16;100.00
18813;BME280;9534;51.140;6.296;2023-01-26T09:33:37;101457.53;;;0.07;100.00
18813;BME280;9534;51.140;6.296;2023-01-26T09:37:43;101467.00;;;0.22;100.00
18813;BME280;9534;51.140;6.296;2023-01-26T09:41:59;101462.13;;;0.16;100.00
18813;BME280;9534;51.140;6.296;2023-01-26T09:46:18;101456.97;;;0.24;100.00
18813;BME280;9534;51.140;6.296;2023-01-26T09:50:25;101467.16;;;0.09;100.00
18813;BME280;9534;51.140;6.296;2023-01-26T09:54:35;101464.56;;;0.30;100.00
18813;BME280;9534;51.140;6.296;2023-01-26T09:58:44;101467.00;;;0.22;100.00
18813;BME280;9534;51.140;6.296;2023-01-26T10:02:59;101468.94;;;0.42;100.00
18813;BME280;9534;51.140;6.296;2023-01-26T10:07:09;101473.25;;;0.44;100.00
18813;BME280;9534;51.140;6.296;2023-01-26T10:11:24;101462.84;;;0.29;100.00
18813;BME280;9534;51.140;6.296;2023-01-26T10:15:33;101457.09;;;0.44;100.00
18813;BME280;9534;51.140;6.296;2023-01-26T10:19:43;101456.25;;;0.22;100.00
18813;BME280;9534;51.140;6.296;2023-01-26T10:23:48;101455.50;;;0.31;100.00
18813;BME280;9534;51.140;6.296;2023-01-26T10:27:54;101465.91;;;0.35;100.00
18813;BME280;9534;51.140;6.296;2023-01-26T10:31:58;101451.38;;;0.16;100.00
18813;BME280;9534;51.140;6.296;2023-01-26T10:36:04;101449.81;;;0.56;100.00
18813;BME280;9534;51.140;6.296;2023-01-26T10:40:09;101443.47;;;0.46;100.00
18813;BME280;9534;51.140;6.296;2023-01-26T10:44:24;101440.75;;;0.57;100.00
18813;BME280;9534;51.140;6.296;2023-01-26T10:48:32;101431.91;;;0.66;100.00
18813;BME280;9534;51.140;6.296;2023-01-26T10:52:36;101432.13;;;0.74;100.00
18813;BME280;9534;51.140;6.296;2023-01-26T10:56:43;101439.19;;;1.06;100.00
18813;BME280;9534;51.140;6.296;2023-01-26T11:00:54;101430.84;;;0.89;100.00
18813;BME280;9534;51.140;6.296;2023-01-26T11:05:20;101436.69;;;0.94;100.00
18813;BME280;9534;51.140;6.296;2023-01-26T11:09:26;101435.72;;;0.95;100.00
18813;BME280;9534;51.140;6.296;2023-01-26T11:13:33;101432.13;;;0.74;100.00
18813;BME280;9534;51.140;6.296;2023-01-26T11:17:43;101428.78;;;0.81;100.00
18813;BME280;9534;51.140;6.296;2023-01-26T11:21:53;101429.78;;;1.01;100.00
18813;BME280;9534;51.140;6.296;2023-01-26T11:26:10;101424.00;;;0.85;100.00
18813;BME280;9534;51.140;6.296;2023-01-26T11:30:42;101431.22;;;1.05;100.00
18813;BME280;9534;51.140;6.296;2023-01-26T11:34:59;101429.41;;;0.85;100.00
18813;BME280;9534;51.140;6.296;2023-01-26T11:39:14;101426.63;;;0.96;100.00
18813;BME280;9534;51.140;6.296;2023-01-26T11:43:45;101417.84;;;0.94;100.00
18813;BME280;9534;51.140;6.296;2023-01-26T11:48:05;101410.59;;;1.15;100.00
18813;BME280;9534;51.140;6.296;2023-01-26T11:52:25;101410.84;;;1.12;100.00
18813;BME280;9534;51.140;6.296;2023-01-26T11:56:43;101408.06;;;1.13;100.00
18813;BME280;9534;51.140;6.296;2023-01-26T12:00:52;101409.94;;;1.02;100.00
18813;BME280;9534;51.140;6.296;2023-01-26T12:05:01;101398.06;;;1.04;100.00
18813;BME280;9534;51.140;6.296;2023-01-26T12:09:13;101394.16;;;1.18;100.00
18813;BME280;9534;51.140;6.296;2023-01-26T12:13:29;101400.81;;;1.14;100.00
18813;BME280;9534;51.140;6.296;2023-01-26T12:17:44;101393.97;;;1.10;100.00
18813;BME280;9534;51.140;6.296;2023-01-26T12:21:53;101391.34;;;1.19;100.00
18813;BME280;9534;51.140;6.296;2023-01-26T12:26:04;101389.50;;;1.20;100.00
18813;BME280;9534;51.140;6.296;2023-01-26T12:30:23;101383.47;;;1.27;100.00
18813;BME280;9534;51.140;6.296;2023-01-26T12:34:31;101375.59;;;1.44;100.00
18813;BME280;9534;51.140;6.296;2023-01-26T12:38:42;101370.09;;;1.26;100.00
18813;BME280;9534;51.140;6.296;2023-01-26T12:42:57;101370.69;;;1.29;100.00
18813;BME280;9534;51.140;6.296;2023-01-26T12:47:12;101369.19;;;1.16;100.00
18813;BME280;9534;51.140;6.296;2023-01-26T12:51:20;101364.97;;;1.23;100.00
18813;BME280;9534;51.140;6.296;2023-01-26T12:55:31;101350.78;;;1.21;100.00
18813;BME280;9534;51.140;6.296;2023-01-26T12:59:39;101352.03;;;1.17;100.00
18813;BME280;9534;51.140;6.296;2023-01-26T13:03:52;101349.84;;;1.11;100.00
18813;BME280;9534;51.140;6.296;2023-01-26T13:07:58;101356.97;;;1.12;100.00
18813;BME280;9534;51.140;6.296;2023-01-26T13:12:43;101357.88;;;1.22;100.00
18813;BME280;9534;51.140;6.296;2023-01-26T13:16:48;101353.00;;;1.16;100.00
18813;BME280;9534;51.140;6.296;2023-01-26T13:20:52;101364.44;;;1.28;100.00
18813;BME280;9534;51.140;6.296;2023-01-26T13:24:57;101357.97;;;1.40;100.00
18813;BME280;9534;51.140;6.296;2023-01-26T13:29:26;101343.19;;;1.35;100.00
18813;BME280;9534;51.140;6.296;2023-01-26T13:33:31;101355.59;;;1.47;100.00
18813;BME280;9534;51.140;6.296;2023-01-26T13:37:47;101360.59;;;1.51;100.00
18813;BME280;9534;51.140;6.296;2023-01-26T13:41:52;101356.63;;;1.55;100.00
18813;BME280;9534;51.140;6.296;2023-01-26T13:46:07;101351.88;;;1.48;100.00
18813;BME280;9534;51.140;6.296;2023-01-26T13:50:27;101346.72;;;1.65;100.00
18813;BME280;9534;51.140;6.296;2023-01-26T13:54:31;101357.16;;;1.79;100.00
18813;BME280;9534;51.140;6.296;2023-01-26T13:58:36;101352.44;;;1.81;100.00
18813;BME280;9534;51.140;6.296;2023-01-26T14:02:39;101352.88;;;1.86;100.00
18813;BME280;9534;51.140;6.296;2023-01-26T14:06:47;101357.34;;;1.97;100.00
18813;BME280;9534;51.140;6.296;2023-01-26T14:10:52;101348.53;;;2.04;100.00
18813;BME280;9534;51.140;6.296;2023-01-26T14:14:59;101342.31;;;2.23;100.00
18813;BME280;9534;51.140;6.296;2023-01-26T14:19:12;101343.47;;;2.39;100.00
18813;BME280;9534;51.140;6.296;2023-01-26T14:23:18;101349.75;;;2.49;100.00
18813;BME280;9534;51.140;6.296;2023-01-26T14:27:29;101348.19;;;2.56;100.00
18813;BME280;9534;51.140;6.296;2023-01-26T14:31:35;101344.78;;;2.54;100.00
18813;BME280;9534;51.140;6.296;2023-01-26T14:35:40;101345.63;;;2.64;100.00
18813;BME280;9534;51.140;6.296;2023-01-26T14:39:45;101343.75;;;2.64;100.00
18813;BME280;9534;51.140;6.296;2023-01-26T14:43:50;101358.53;;;2.70;100.00
18813;BME280;9534;51.140;6.296;2023-01-26T14:48:00;101362.38;;;2.77;100.00
18813;BME280;9534;51.140;6.296;2023-01-26T14:52:16;101370.19;;;2.80;100.00
18813;BME280;9534;51.140;6.296;2023-01-26T14:56:30;101364.50;;;2.83;100.00
18813;BME280;9534;51.140;6.296;2023-01-26T15:00:37;101376.75;;;2.87;100.00
18813;BME280;9534;51.140;6.296;2023-01-26T15:04:45;101364.66;;;2.91;100.00
18813;BME280;9534;51.140;6.296;2023-01-26T15:09:00;101385.41;;;3.00;100.00
18813;BME280;9534;51.140;6.296;2023-01-26T15:13:16;101384.84;;;3.06;100.00
18813;BME280;9534;51.140;6.296;2023-01-26T15:17:36;101388.69;;;3.13;100.00
18813;BME280;9534;51.140;6.296;2023-01-26T15:21:39;101379.56;;;3.14;100.00
18813;BME280;9534;51.140;6.296;2023-01-26T15:25:45;101387.09;;;3.20;100.00
18813;BME280;9534;51.140;6.296;2023-01-26T15:29:58;101392.94;;;3.25;100.00
18813;BME280;9534;51.140;6.296;2023-01-26T15:34:04;101394.91;;;3.23;100.00
18813;BME280;9534;51.140;6.296;2023-01-26T15:38:10;101395.19;;;3.29;100.00
18813;BME280;9534;51.140;6.296;2023-01-26T15:42:19;101392.88;;;3.34;100.00
18813;BME280;9534;51.140;6.296;2023-01-26T15:46:25;101386.66;;;3.34;100.00
18813;BME280;9534;51.140;6.296;2023-01-26T15:50:29;101393.19;;;3.41;100.00
18813;BME280;9534;51.140;6.296;2023-01-26T15:54:32;101387.06;;;3.39;100.00
18813;BME280;9534;51.140;6.296;2023-01-26T15:58:36;101378.06;;;3.48;100.00
18813;BME280;9534;51.140;6.296;2023-01-26T16:02:42;101388.56;;;3.51;100.00
18813;BME280;9534;51.140;6.296;2023-01-26T16:06:47;101388.19;;;3.46;100.00
18813;BME280;9534;51.140;6.296;2023-01-26T16:10:52;101380.63;;;3.49;100.00
18813;BME280;9534;51.140;6.296;2023-01-26T16:14:58;101386.91;;;3.50;100.00
18813;BME280;9534;51.140;6.296;2023-01-26T16:19:03;101375.38;;;3.48;100.00
18813;BME280;9534;51.140;6.296;2023-01-26T16:23:16;101379.78;;;3.49;100.00
18813;BME280;9534;51.140;6.296;2023-01-26T16:27:20;101386.03;;;3.49;100.00
18813;BME280;9534;51.140;6.296;2023-01-26T16:31:26;101388.56;;;3.51;100.00
18813;BME280;9534;51.140;6.296;2023-01-26T16:35:32;101377.75;;;3.51;100.00
18813;BME280;9534;51.140;6.296;2023-01-26T16:39:36;101375.19;;;3.49;100.00
18813;BME280;9534;51.140;6.296;2023-01-26T16:43:41;101374.19;;;3.50;100.00
18813;BME280;9534;51.140;6.296;2023-01-26T16:47:48;101373.91;;;3.53;100.00
18813;BME280;9534;51.140;6.296;2023-01-26T16:51:55;101373.50;;;3.48;100.00
18813;BME280;9534;51.140;6.296;2023-01-26T16:55:58;101373.50;;;3.48;100.00
18813;BME280;9534;51.140;6.296;2023-01-26T17:00:05;101379.78;;;3.49;100.00
18813;BME280;9534;51.140;6.296;2023-01-26T17:04:09;101378.03;;;3.57;100.00
18813;BME280;9534;51.140;6.296;2023-01-26T17:08:15;101387.09;;;3.66;100.00
18813;BME280;9534;51.140;6.296;2023-01-26T17:12:18;101384.81;;;3.70;100.00
18813;BME280;9534;51.140;6.296;2023-01-26T17:16:23;101374.84;;;3.71;100.00
18813;BME280;9534;51.140;6.296;2023-01-26T17:20:28;101373.97;;;3.70;100.00
18813;BME280;9534;51.140;6.296;2023-01-26T17:24:33;101373.25;;;3.68;100.00
18813;BME280;9534;51.140;6.296;2023-01-26T17:28:37;101366.56;;;3.72;100.00
18813;BME280;9534;51.140;6.296;2023-01-26T17:32:41;101373.44;;;3.67;100.00
18813;BME280;9534;51.140;6.296;2023-01-26T17:36:45;101380.50;;;3.77;100.00
18813;BME280;9534;51.140;6.296;2023-01-26T17:40:54;101386.25;;;3.65;100.00
18813;BME280;9534;51.140;6.296;2023-01-26T17:44:58;101382.69;;;3.65;100.00
18813;BME280;9534;51.140;6.296;2023-01-26T17:49:04;101392.50;;;3.66;100.00
18813;BME280;9534;51.140;6.296;2023-01-26T17:53:09;101390.09;;;3.63;100.00
18813;BME280;9534;51.140;6.296;2023-01-26T17:57:13;101397.91;;;3.66;100.00
18813;BME280;9534;51.140;6.296;2023-01-26T18:01:18;101410.16;;;3.69;100.00
18813;BME280;9534;51.140;6.296;2023-01-26T18:05:22;101416.72;;;3.67;100.00
18813;BME280;9534;51.140;6.296;2023-01-26T18:09:26;101400.09;;;3.62;100.00
18813;BME280;9534;51.140;6.296;2023-01-26T18:13:32;101414.44;;;3.63;100.00
18813;BME280;9534;51.140;6.296;2023-01-26T18:17:36;101408.50;;;3.59;100.00
18813;BME280;9534;51.140;6.296;2023-01-26T18:21:40;101400.91;;;3.63;100.00
18813;BME280;9534;51.140;6.296;2023-01-26T18:25:44;101395.09;;;3.67;100.00
18813;BME280;9534;51.140;6.296;2023-01-26T18:29:49;101400.09;;;3.62;100.00
18813;BME280;9534;51.140;6.296;2023-01-26T18:33:54;101402.22;;;3.59;100.00
18813;BME280;9534;51.140;6.296;2023-01-26T18:37:58;101401.63;;;3.65;100.00
18813;BME280;9534;51.140;6.296;2023-01-26T18:42:03;101393.81;;;3.62;100.00
18813;BME280;9534;51.140;6.296;2023-01-26T18:46:09;101396.81;;;3.59;100.00
18813;BME280;9534;51.140;6.296;2023-01-26T18:50:13;101397.09;;;3.56;100.00
18813;BME280;9534;51.140;6.296;2023-01-26T18:54:17;101398.50;;;3.60;100.00
18813;BME280;9534;51.140;6.296;2023-01-26T18:58:22;101389.38;;;3.61;100.00
18813;BME280;9534;51.140;6.296;2023-01-26T19:02:27;101394.50;;;3.64;100.00
18813;BME280;9534;51.140;6.296;2023-01-26T19:06:34;101388.25;;;3.63;100.00
18813;BME280;9534;51.140;6.296;2023-01-26T19:10:38;101375.44;;;3.65;100.00
18813;BME280;9534;51.140;6.296;2023-01-26T19:14:43;101386.09;;;3.67;100.00
18813;BME280;9534;51.140;6.296;2023-01-26T19:18:48;101383.69;;;3.64;100.00
18813;BME280;9534;51.140;6.296;2023-01-26T19:22:53;101384.38;;;3.66;100.00
18813;BME280;9534;51.140;6.296;2023-01-26T19:26:58;101376.56;;;3.63;100.00
18813;BME280;9534;51.140;6.296;2023-01-26T19:31:03;101376.84;;;3.69;100.00
18813;BME280;9534;51.140;6.296;2023-01-26T19:35:08;101379.38;;;3.70;100.00
18813;BME280;9534;51.140;6.296;2023-01-26T19:39:15;101384.50;;;3.73;100.00
18813;BME280;9534;51.140;6.296;2023-01-26T19:43:20;101387.06;;;3.75;100.00
18813;BME280;9534;51.140;6.296;2023-01-26T19:47:24;101380.50;;;3.77;100.00
18813;BME280;9534;51.140;6.296;2023-01-26T19:51:30;101389.31;;;3.79;100.00
18813;BME280;9534;51.140;6.296;2023-01-26T19:55:34;101388.50;;;3.79;100.00
18813;BME280;9534;51.140;6.296;2023-01-26T19:59:38;101390.44;;;3.86;100.00
18813;BME280;9534;51.140;6.296;2023-01-26T20:03:42;101387.31;;;3.91;100.00
18813;BME280;9534;51.140;6.296;2023-01-26T20:07:48;101387.84;;;3.94;100.00
18813;BME280;9534;51.140;6.296;2023-01-26T20:11:52;101378.72;;;3.95;100.00
18813;BME280;9534;51.140;6.296;2023-01-26T20:15:56;101388.25;;;3.99;100.00
18813;BME280;9534;51.140;6.296;2023-01-26T20:20:01;101387.25;;;4.00;100.00
18813;BME280;9534;51.140;6.296;2023-01-26T20:24:10;101379.53;;;4.05;100.00
18813;BME280;9534;51.140;6.296;2023-01-26T20:28:14;101380.53;;;4.04;100.00
18813;BME280;9534;51.140;6.296;2023-01-26T20:32:18;101373.81;;;4.08;100.00
18813;BME280;9534;51.140;6.296;2023-01-26T20:36:24;101380.63;;;4.12;100.00
18813;BME280;9534;51.140;6.296;2023-01-26T20:40:30;101369.78;;;4.12;100.00
18813;BME280;9534;51.140;6.296;2023-01-26T20:44:36;101377.03;;;4.12;100.00
18813;BME280;9534;51.140;6.296;2023-01-26T20:48:41;101380.03;;;4.18;100.00
18813;BME280;9534;51.140;6.296;2023-01-26T20:52:45;101377.44;;;4.17;100.00
18813;BME280;9534;51.140;6.296;2023-01-26T20:56:50;101370.03;;;4.19;100.00
18813;BME280;9534;51.140;6.296;2023-01-26T21:01:01;101374.44;;;4.20;100.00
18813;BME280;9534;51.140;6.296;2023-01-26T21:05:07;101376.00;;;4.22;100.00
18813;BME280;9534;51.140;6.296;2023-01-26T21:09:11;101360.75;;;4.21;100.00
18813;BME280;9534;51.140;6.296;2023-01-26T21:13:17;101356.03;;;4.23;100.00
18813;BME280;9534;51.140;6.296;2023-01-26T21:17:21;101372.28;;;4.23;100.00
18813;BME280;9534;51.140;6.296;2023-01-26T21:21:26;101364.69;;;4.27;100.00
18813;BME280;9534;51.140;6.296;2023-01-26T21:25:30;101362.84;;;4.27;100.00
18813;BME280;9534;51.140;6.296;2023-01-26T21:29:36;101364.56;;;4.28;100.00
18813;BME280;9534;51.140;6.296;2023-01-26T21:33:42;101359.16;;;4.28;100.00
18813;BME280;9534;51.140;6.296;2023-01-26T21:37:46;101361.16;;;4.26;100.00
18813;BME280;9534;51.140;6.296;2023-01-26T21:41:50;101386.22;;;4.28;100.00
18813;BME280;9534;51.140;6.296;2023-01-26T21:46:02;101380.81;;;4.28;100.00